Time;durP1;ratioP1;P1;durP2;ratioP2;P2;SDS_P1;SDS_P2;PMS_P1;PMS_P2;Temp;Humidity;BMP_temperature;BMP_pressure;BME280_temperature;BME280_humidity;BME280_pressure;Samples;Min_cycle;Max_cycle;Signal;HPM_P1;HPM_P2
2023/05/16 00:01:40;;;;;;;4.95;1.90;;;15.30;99.90;;;;;;5094104;28;20051;-79
2023/05/16 00:04:45;;;;;;;6.80;1.70;;;15.30;99.90;;;;;;5092531;28;20042;-80
2023/05/16 00:07:49;;;;;;;2.90;1.90;;;15.40;99.90;;;;;;5093115;28;20044;-79
2023/05/16 00:10:53;;;;;;;3.90;2.20;;;15.40;99.90;;;;;;5092484;28;20051;-80
2023/05/16 00:13:57;;;;;;;6.85;3.00;;;15.40;99.90;;;;;;5092875;28;20043;-80
2023/05/16 00:17:03;;;;;;;6.20;2.80;;;15.30;99.90;;;;;;5093184;28;20039;-77
2023/05/16 00:20:10;;;;;;;7.72;2.90;;;14.70;99.90;;;;;;5092944;28;20066;-77
2023/05/16 00:23:15;;;;;;;6.53;4.00;;;15.40;99.90;;;;;;5092952;28;20054;-78
2023/05/16 00:26:20;;;;;;;7.05;4.53;;;15.50;99.90;;;;;;5092859;28;20058;-79
2023/05/16 00:29:24;;;;;;;9.32;1.65;;;15.70;99.90;;;;;;5092458;28;20043;-79
2023/05/16 00:32:28;;;;;;;3.83;1.25;;;15.70;99.90;;;;;;5093030;28;20047;-79
2023/05/16 00:35:32;;;;;;;2.30;1.17;;;15.80;99.90;;;;;;5080576;28;20495;-80
2023/05/16 00:38:36;;;;;;;3.33;0.90;;;14.10;99.90;;;;;;5093044;28;20043;-80
2023/05/16 00:41:40;;;;;;;3.63;1.60;;;15.30;99.90;;;;;;5092627;28;20047;-77
2023/05/16 00:44:44;;;;;;;2.60;1.52;;;15.40;99.90;;;;;;5092109;28;20047;-80
2023/05/16 00:47:52;;;;;;;4.95;1.20;;;15.30;99.90;;;;;;5092666;28;20051;-79
2023/05/16 00:50:57;;;;;;;2.55;1.20;;;15.30;99.90;;;;;;5092924;28;20039;-80
2023/05/16 00:54:01;;;;;;;2.28;1.38;;;15.30;99.90;;;;;;5092581;28;20043;-79
2023/05/16 00:57:06;;;;;;;3.15;1.27;;;18.70;99.90;;;;;;5092729;28;20047;-80
2023/05/16 01:00:10;;;;;;;3.35;1.42;;;;;;;;;;5091438;28;20066;-80
2023/05/16 01:03:15;;;;;;;5.47;1.60;;;15.30;99.90;;;;;;5092332;28;20024;-80
2023/05/16 01:06:19;;;;;;;4.15;1.80;;;16.00;99.90;;;;;;5091394;28;20054;-80
2023/05/16 01:09:23;;;;;;;4.85;1.95;;;11.50;99.90;;;;;;5091087;28;20384;-80
2023/05/16 01:12:40;;;;;;;3.55;1.80;;;15.70;99.90;;;;;;5092266;28;20395;-79
2023/05/16 01:16:03;;;;;;;7.05;1.67;;;15.50;99.90;;;;;;5092084;28;20039;-79
2023/05/16 01:19:25;;;;;;;3.63;1.70;;;15.50;99.90;;;;;;5091423;28;20050;-80
2023/05/16 01:22:47;;;;;;;3.97;1.73;;;15.60;99.90;;;;;;5091122;28;20075;-80
2023/05/16 01:26:22;;;;;;;3.22;1.60;;;15.40;99.90;;;;;;5091624;28;20051;-80
2023/05/16 01:29:26;;;;;;;4.38;1.83;;;14.90;99.90;;;;;;5091842;28;20608;-79
2023/05/16 01:32:30;;;;;;;4.10;1.70;;;15.50;99.90;;;;;;5091585;28;20537;-79
2023/05/16 01:35:52;;;;;;;4.65;2.50;;;15.80;99.90;;;;;;5091902;28;20038;-80
2023/05/16 01:39:06;;;;;;;3.80;1.88;;;13.60;99.90;;;;;;5091188;28;20063;-79
2023/05/16 01:42:15;;;;;;;7.10;2.85;;;15.60;99.90;;;;;;5091710;28;20051;-79
2023/05/16 01:45:25;;;;;;;6.05;2.22;;;15.40;99.90;;;;;;5090818;28;20047;-80
2023/05/16 01:48:37;;;;;;;8.55;2.38;;;14.70;99.90;;;;;;5091738;28;20051;-79
2023/05/16 01:51:44;;;;;;;9.63;2.17;;;15.40;99.90;;;;;;5091231;28;20419;-80
2023/05/16 01:54:53;;;;;;;10.07;2.50;;;15.30;99.90;;;;;;5090403;28;20042;-79
2023/05/16 01:57:59;;;;;;;8.98;2.47;;;12.80;99.90;;;;;;5091267;28;20057;-80
2023/05/16 02:01:05;;;;;;;5.43;2.20;;;17.30;99.90;;;;;;5091700;28;20047;-81
2023/05/16 02:04:10;;;;;;;5.07;1.50;;;;;;;;;;5090387;28;20035;-81
2023/05/16 02:07:14;;;;;;;5.53;1.90;;;15.10;99.90;;;;;;5091211;28;20044;-81
2023/05/16 02:10:19;;;;;;;6.53;1.85;;;;;;;;;;5091430;28;20039;-81
2023/05/16 02:13:22;;;;;;;5.78;1.63;;;15.30;99.90;;;;;;5091580;28;20044;-80
2023/05/16 02:16:27;;;;;;;3.67;1.70;;;;;;;;;;5091029;28;20047;-81
2023/05/16 02:19:31;;;;;;;7.10;2.03;;;15.30;99.90;;;;;;5079364;28;20372;-80
2023/05/16 02:22:36;;;;;;;6.15;1.80;;;15.30;99.90;;;;;;5092083;28;20039;-80
2023/05/16 02:25:40;;;;;;;6.97;1.88;;;15.50;99.90;;;;;;5092029;28;20044;-81
2023/05/16 02:28:50;;;;;;;6.53;1.67;;;15.40;99.90;;;;;;5095876;28;20510;-80
2023/05/16 02:31:54;;;;;;;3.75;1.20;;;;;;;;;;5090380;28;20035;-80
2023/05/16 02:34:58;;;;;;;2.92;1.20;;;18.10;99.90;;;;;;5092071;28;20032;-79
2023/05/16 02:38:02;;;;;;;4.07;1.02;;;15.30;99.90;;;;;;5090839;28;20526;-79
2023/05/16 02:41:06;;;;;;;3.88;0.80;;;17.90;99.90;;;;;;5091546;28;20051;-81
2023/05/16 02:44:10;;;;;;;1.50;0.60;;;;;;;;;;5092998;28;20059;-80
2023/05/16 02:47:14;;;;;;;2.35;0.70;;;;;;;;;;5090347;28;20044;-79
2023/05/16 02:50:20;;;;;;;2.53;0.60;;;;;;;;;;5067973;28;20385;-79
2023/05/16 02:53:24;;;;;;;4.43;0.73;;;15.30;99.90;;;;;;5090608;28;20035;-79
2023/05/16 02:56:28;;;;;;;1.35;0.73;;;14.10;99.90;;;;;;5089822;28;20043;-79
2023/05/16 02:59:32;;;;;;;2.70;0.55;;;15.40;99.90;;;;;;5091732;28;20051;-80
2023/05/16 03:02:36;;;;;;;2.83;0.70;;;;;;;;;;5090884;28;20039;-81
2023/05/16 03:05:40;;;;;;;2.30;0.80;;;14.40;99.90;;;;;;5095031;28;20039;-78
2023/05/16 03:08:44;;;;;;;3.38;0.90;;;;;;;;;;5094585;28;20051;-79
2023/05/16 03:11:48;;;;;;;2.80;0.60;;;15.40;99.90;;;;;;5094219;28;20032;-79
2023/05/16 03:14:52;;;;;;;4.35;0.75;;;15.80;99.90;;;;;;5094298;28;20046;-80
2023/05/16 03:17:56;;;;;;;3.75;0.90;;;14.30;99.90;;;;;;5094279;28;20502;-80
2023/05/16 03:21:01;;;;;;;6.20;0.90;;;15.30;99.90;;;;;;5094286;28;20396;-80
2023/05/16 03:24:06;;;;;;;3.05;0.70;;;15.40;99.90;;;;;;5094329;28;20106;-80
2023/05/16 03:27:12;;;;;;;1.70;0.75;;;14.90;99.90;;;;;;5093569;28;20051;-79
2023/05/16 03:30:17;;;;;;;5.20;1.30;;;15.60;99.90;;;;;;5094402;28;20067;-80
2023/05/16 03:33:23;;;;;;;2.38;0.82;;;16.10;99.90;;;;;;5092960;28;20047;-80
2023/05/16 03:36:27;;;;;;;1.65;0.70;;;;;;;;;;5093599;28;20513;-80
2023/05/16 03:39:31;;;;;;;2.65;0.73;;;;;;;;;;5092637;28;20381;-79
2023/05/16 03:42:35;;;;;;;2.72;1.38;;;16.60;99.90;;;;;;5092803;28;20496;-79
2023/05/16 03:45:39;;;;;;;5.70;0.70;;;14.40;99.90;;;;;;5093775;28;20039;-78
2023/05/16 03:48:43;;;;;;;2.88;0.90;;;14.40;99.90;;;;;;5093839;28;20067;-79
2023/05/16 03:51:46;;;;;;;7.70;1.33;;;15.20;99.90;;;;;;5093644;28;20050;-80
2023/05/16 03:54:51;;;;;;;1.85;0.88;;;;;;;;;;5093622;28;20055;-79
2023/05/16 03:57:55;;;;;;;3.28;0.70;;;;;;;;;;5093413;28;20444;-79
2023/05/16 04:01:05;;;;;;;2.72;1.20;;;;;;;;;;5094692;28;20043;-79
2023/05/16 04:04:09;;;;;;;4.50;1.17;;;15.10;99.90;;;;;;5092349;28;20032;-79
2023/05/16 04:07:13;;;;;;;3.03;0.73;;;15.10;99.90;;;;;;5092999;28;20051;-78
2023/05/16 04:10:17;;;;;;;2.28;0.77;;;12.70;99.90;;;;;;5092814;28;20035;-79
2023/05/16 04:13:21;;;;;;;2.40;0.88;;;15.10;99.90;;;;;;5093491;28;20047;-78
2023/05/16 04:16:25;;;;;;;2.45;0.60;;;15.30;99.90;;;;;;5093052;28;20043;-79
2023/05/16 04:19:29;;;;;;;1.15;0.70;;;19.30;99.90;;;;;;5093135;28;20059;-78
2023/05/16 04:22:33;;;;;;;3.13;1.00;;;14.50;99.90;;;;;;5092918;28;20047;-79
2023/05/16 04:25:37;;;;;;;3.38;1.58;;;15.20;99.90;;;;;;5092759;28;20043;-78
2023/05/16 04:28:41;;;;;;;2.05;0.68;;;12.10;99.90;;;;;;5092404;28;20412;-80
2023/05/16 04:31:45;;;;;;;4.05;1.00;;;;;;;;;;5092529;28;20039;-79
2023/05/16 04:34:52;;;;;;;3.30;1.00;;;14.80;99.90;;;;;;5092461;28;20036;-79
2023/05/16 04:37:56;;;;;;;2.15;0.80;;;14.90;99.90;;;;;;5092585;28;20043;-79
2023/05/16 04:41:00;;;;;;;1.88;0.80;;;15.10;99.90;;;;;;5092560;28;20051;-77
2023/05/16 04:44:05;;;;;;;2.72;0.90;;;;;;;;;;5092650;28;20059;-79
2023/05/16 04:47:09;;;;;;;2.33;0.77;;;15.00;99.90;;;;;;5092462;28;20048;-79
2023/05/16 04:50:14;;;;;;;2.05;0.80;;;15.10;99.90;;;;;;5092234;28;20541;-79
2023/05/16 04:53:18;;;;;;;1.92;1.10;;;15.00;99.90;;;;;;5092858;28;20047;-78
2023/05/16 04:56:22;;;;;;;3.72;0.93;;;14.70;99.90;;;;;;5091952;28;20059;-79
2023/05/16 04:59:27;;;;;;;4.22;1.10;;;;;;;;;;5093307;28;20475;-79
2023/05/16 05:02:31;;;;;;;4.10;0.80;;;15.00;99.90;;;;;;5092974;28;20048;-79
2023/05/16 05:05:35;;;;;;;3.97;0.63;;;15.10;99.90;;;;;;5092922;28;20039;-79
2023/05/16 05:08:40;;;;;;;2.63;1.10;;;15.10;99.90;;;;;;5092078;28;20106;-79
2023/05/16 05:11:45;;;;;;;2.60;0.93;;;;;;;;;;5092305;28;20534;-78
2023/05/16 05:14:49;;;;;;;1.33;0.85;;;;;;;;;;5091910;28;20036;-78
2023/05/16 05:17:53;;;;;;;1.65;0.77;;;;;;;;;;5091934;28;20040;-78
2023/05/16 05:20:57;;;;;;;3.80;1.10;;;15.20;99.90;;;;;;5091065;28;20032;-81
2023/05/16 05:24:03;;;;;;;3.00;1.80;;;;;;;;;;5091920;28;20043;-71
2023/05/16 05:27:07;;;;;;;4.40;1.30;;;15.30;99.90;;;;;;5091465;28;20475;-68
2023/05/16 05:30:11;;;;;;;3.10;1.17;;;;;;;;;;5091532;28;20051;-70
2023/05/16 05:33:19;;;;;;;1.60;1.23;;;15.40;99.90;;;;;;5091193;28;20476;-70
2023/05/16 05:36:23;;;;;;;2.05;1.15;;;19.00;99.90;;;;;;5091134;28;20198;-70
2023/05/16 05:39:27;;;;;;;3.72;0.80;;;15.40;99.90;;;;;;5091334;28;20043;-71
2023/05/16 05:42:31;;;;;;;1.40;0.95;;;;;;;;;;5091505;28;20392;-69
2023/05/16 05:45:36;;;;;;;2.17;1.10;;;15.00;99.90;;;;;;5091394;28;20036;-70
2023/05/16 05:48:40;;;;;;;2.47;1.00;;;15.30;99.90;;;;;;5090320;28;20210;-70
2023/05/16 05:51:44;;;;;;;1.63;1.00;;;15.70;99.90;;;;;;5091347;28;20051;-70
2023/05/16 05:54:48;;;;;;;4.65;0.80;;;15.60;99.90;;;;;;5091296;28;20055;-69
2023/05/16 05:57:52;;;;;;;1.67;0.50;;;15.50;99.90;;;;;;5090909;28;20043;-69
2023/05/16 06:00:56;;;;;;;1.60;0.60;;;16.20;99.90;;;;;;5091174;28;20503;-69
2023/05/16 06:03:59;;;;;;;1.48;0.60;;;15.80;99.90;;;;;;5090879;28;20119;-70
2023/05/16 06:07:04;;;;;;;1.55;0.73;;;14.80;99.90;;;;;;5090724;28;20066;-69
2023/05/16 06:10:08;;;;;;;1.77;0.70;;;;;;;;;;5090774;28;20471;-67
2023/05/16 06:13:13;;;;;;;5.15;1.10;;;;;;;;;;5090763;28;20044;-69
2023/05/16 06:16:17;;;;;;;1.67;0.55;;;12.70;99.90;;;;;;5090443;28;20032;-71
2023/05/16 06:19:22;;;;;;;2.20;0.43;;;;;;;;;;5091101;28;20035;-70
2023/05/16 06:22:26;;;;;;;1.50;0.57;;;15.80;99.90;;;;;;5090739;28;20036;-71
2023/05/16 06:25:30;;;;;;;3.13;0.60;;;15.80;99.90;;;;;;5089465;28;20403;-71
2023/05/16 06:28:34;;;;;;;2.65;0.50;;;15.70;99.90;;;;;;5089857;28;20051;-71
2023/05/16 06:31:38;;;;;;;1.52;0.70;;;17.00;99.90;;;;;;5090057;28;20043;-70
2023/05/16 06:34:42;;;;;;;1.83;0.80;;;15.90;99.90;;;;;;5090418;28;20510;-71
2023/05/16 06:37:46;;;;;;;3.95;0.68;;;15.90;99.90;;;;;;5091741;28;20383;-72
2023/05/16 06:40:50;;;;;;;1.05;0.60;;;15.80;99.90;;;;;;5094286;28;20656;-71
2023/05/16 06:43:55;;;;;;;3.25;0.98;;;16.10;99.90;;;;;;5093466;28;20043;-70
2023/05/16 06:46:59;;;;;;;3.35;0.75;;;16.10;99.90;;;;;;5094173;28;20050;-69
2023/05/16 06:50:04;;;;;;;1.50;0.70;;;15.90;99.90;;;;;;5094337;28;20046;-71
2023/05/16 06:53:07;;;;;;;1.02;0.40;;;16.00;99.90;;;;;;5093541;28;20050;-70
2023/05/16 06:56:11;;;;;;;2.08;0.50;;;16.00;99.90;;;;;;5094089;28;20059;-71
2023/05/16 06:59:15;;;;;;;2.83;0.50;;;16.10;99.90;;;;;;5094185;28;20043;-69
2023/05/16 07:02:19;;;;;;;8.30;1.00;;;16.10;99.90;;;;;;5094363;28;20051;-69
2023/05/16 07:05:23;;;;;;;2.20;1.52;;;16.10;99.90;;;;;;5093865;28;20047;-70
2023/05/16 07:08:27;;;;;;;2.25;0.80;;;16.20;99.90;;;;;;5091704;28;20043;-70
2023/05/16 07:11:31;;;;;;;3.28;0.93;;;16.20;99.90;;;;;;5094024;28;20047;-70
2023/05/16 07:14:35;;;;;;;3.15;0.70;;;16.30;99.90;;;;;;5093563;28;20047;-70
2023/05/16 07:17:39;;;;;;;2.33;0.40;;;16.30;99.90;;;;;;5093909;28;20043;-69
2023/05/16 07:20:44;;;;;;;1.48;0.70;;;16.40;99.90;;;;;;5081395;28;20043;-69
2023/05/16 07:23:48;;;;;;;3.28;0.60;;;16.20;99.90;;;;;;5093627;28;20427;-70
2023/05/16 07:26:52;;;;;;;4.80;0.60;;;16.60;99.90;;;;;;5093476;28;20145;-71
2023/05/16 07:29:56;;;;;;;3.33;0.70;;;16.80;99.90;;;;;;5092791;28;20055;-70
2023/05/16 07:33:00;;;;;;;3.08;0.90;;;16.80;99.90;;;;;;5093448;28;20067;-70
2023/05/16 07:36:04;;;;;;;2.13;0.80;;;16.80;99.90;;;;;;5093218;28;20391;-70
2023/05/16 07:39:08;;;;;;;2.85;0.73;;;16.80;99.90;;;;;;5093762;28;20047;-70
2023/05/16 07:42:15;;;;;;;2.33;1.10;;;16.90;99.90;;;;;;5093507;28;20047;-70
2023/05/16 07:45:20;;;;;;;3.30;1.00;;;16.90;99.90;;;;;;5092566;28;20051;-69
2023/05/16 07:48:24;;;;;;;2.28;1.40;;;17.00;99.90;;;;;;5092498;28;20066;-69
2023/05/16 07:51:28;;;;;;;4.28;1.10;;;17.20;99.90;;;;;;5093203;28;20043;-70
2023/05/16 07:54:34;;;;;;;2.92;0.95;;;17.30;99.90;;;;;;5093262;28;20055;-69
2023/05/16 07:57:38;;;;;;;4.03;1.40;;;17.30;99.90;;;;;;5093126;28;20047;-70
2023/05/16 08:00:42;;;;;;;3.03;1.40;;;17.40;99.90;;;;;;5093288;28;20039;-71
2023/05/16 08:03:46;;;;;;;3.85;1.10;;;17.40;99.90;;;;;;5092502;28;20039;-69
2023/05/16 08:06:50;;;;;;;1.88;0.73;;;17.40;99.90;;;;;;5092998;28;20542;-70
2023/05/16 08:09:54;;;;;;;2.28;0.90;;;17.40;99.90;;;;;;5093168;28;20396;-70
2023/05/16 08:12:58;;;;;;;1.17;0.60;;;17.40;99.90;;;;;;5093090;28;20043;-69
2023/05/16 08:16:02;;;;;;;4.45;0.88;;;17.40;99.90;;;;;;5093129;28;20055;-69
2023/05/16 08:19:06;;;;;;;1.20;0.57;;;17.40;99.90;;;;;;5093059;28;20047;-71
2023/05/16 08:22:10;;;;;;;1.08;0.40;;;17.50;99.90;;;;;;5092774;28;20047;-69
2023/05/16 08:25:14;;;;;;;2.80;0.85;;;17.60;99.90;;;;;;5092388;28;20073;-70
2023/05/16 08:28:18;;;;;;;3.03;1.00;;;17.70;99.90;;;;;;5092333;28;20063;-70
2023/05/16 08:31:22;;;;;;;5.05;1.42;;;17.80;99.90;;;;;;5092615;28;20050;-72
2023/05/16 08:34:26;;;;;;;5.65;1.15;;;17.90;99.90;;;;;;5092549;28;20047;-71
2023/05/16 08:37:30;;;;;;;1.52;0.68;;;18.10;99.90;;;;;;5091579;28;20252;-70
2023/05/16 08:40:34;;;;;;;3.67;1.00;;;18.10;99.90;;;;;;5092382;28;20040;-69
2023/05/16 08:43:38;;;;;;;2.13;0.50;;;18.10;99.90;;;;;;5092175;28;20193;-69
2023/05/16 08:46:45;;;;;;;1.70;0.65;;;18.20;99.90;;;;;;5092069;28;20047;-69
2023/05/16 08:49:51;;;;;;;3.70;0.70;;;18.30;99.90;;;;;;5092244;28;20043;-71
2023/05/16 08:52:56;;;;;;;1.70;0.90;;;18.40;99.90;;;;;;5091913;28;20047;-71
2023/05/16 08:56:01;;;;;;;2.17;0.70;;;18.40;99.90;;;;;;5092064;28;20043;-70
2023/05/16 08:59:05;;;;;;;4.22;1.05;;;18.60;99.90;;;;;;5092070;28;20043;-73
2023/05/16 09:02:10;;;;;;;3.10;0.63;;;18.70;99.90;;;;;;5091823;28;20078;-72
2023/05/16 09:05:16;;;;;;;3.80;0.50;;;18.60;99.90;;;;;;5091750;28;20524;-71
2023/05/16 09:08:20;;;;;;;2.60;0.52;;;18.50;99.90;;;;;;5091813;28;20051;-72
2023/05/16 09:11:24;;;;;;;3.33;1.08;;;18.40;99.90;;;;;;5091728;28;20043;-73
2023/05/16 09:14:28;;;;;;;3.08;0.47;;;18.50;99.90;;;;;;5091591;28;20047;-71
2023/05/16 09:17:42;;;;;;;3.85;0.60;;;18.50;99.90;;;;;;5090776;28;20047;-71
2023/05/16 09:20:48;;;;;;;3.17;0.68;;;18.40;99.90;;;;;;5091416;28;20055;-69
2023/05/16 09:23:52;;;;;;;1.25;0.50;;;18.30;99.90;;;;;;5091689;28;20031;-69
2023/05/16 09:26:56;;;;;;;4.43;1.02;;;18.30;99.90;;;;;;5090315;28;20035;-71
2023/05/16 09:30:00;;;;;;;2.75;0.68;;;18.20;99.90;;;;;;5091388;28;20706;-71
2023/05/16 09:33:06;;;;;;;3.95;0.65;;;18.20;99.90;;;;;;5091244;28;20043;-71
2023/05/16 09:36:10;;;;;;;4.75;0.98;;;18.20;99.90;;;;;;5091010;28;20047;-72
2023/05/16 09:39:14;;;;;;;3.13;0.50;;;18.20;99.90;;;;;;5091428;28;20047;-70
2023/05/16 09:42:20;;;;;;;4.00;0.70;;;18.20;99.90;;;;;;5091211;28;20047;-71
2023/05/16 09:45:23;;;;;;;1.85;0.63;;;18.20;99.90;;;;;;5091497;28;20058;-69
2023/05/16 09:48:27;;;;;;;5.60;0.75;;;18.20;99.90;;;;;;5090984;28;20415;-70
2023/05/16 09:51:32;;;;;;;3.42;0.40;;;18.20;99.90;;;;;;5091219;28;20039;-68
2023/05/16 09:54:36;;;;;;;2.55;1.20;;;18.20;99.90;;;;;;5090143;28;20043;-68
2023/05/16 09:57:40;;;;;;;1.60;0.50;;;18.30;99.90;;;;;;5090982;28;20046;-69
2023/05/16 10:00:45;;;;;;;5.93;0.90;;;18.40;99.90;;;;;;5090895;28;20043;-71
2023/05/16 10:03:50;;;;;;;3.00;0.77;;;18.40;99.90;;;;;;5090400;28;20530;-70
2023/05/16 10:06:57;;;;;;;1.65;0.60;;;18.40;99.90;;;;;;5090577;28;20039;-70
2023/05/16 10:10:07;;;;;;;2.47;0.95;;;18.50;99.90;;;;;;5090853;28;20047;-69
2023/05/16 10:13:12;;;;;;;4.18;1.80;;;18.60;99.90;;;;;;5093077;28;20422;-68
2023/05/16 10:16:19;;;;;;;5.53;0.70;;;18.60;99.90;;;;;;5094825;28;20407;-68
2023/05/16 10:19:25;;;;;;;3.28;1.00;;;18.70;99.90;;;;;;5094716;28;20055;-68
2023/05/16 10:22:35;;;;;;;6.28;0.95;;;18.60;99.90;;;;;;5095126;28;20190;-68
2023/05/16 10:25:41;;;;;;;4.37;0.50;;;18.50;99.90;;;;;;5094862;28;20404;-69
2023/05/16 10:28:46;;;;;;;4.28;0.70;;;18.40;99.90;;;;;;5093763;28;20407;-69
2023/05/16 10:31:50;;;;;;;10.80;1.38;;;18.30;99.90;;;;;;5094741;28;20129;-68
2023/05/16 10:34:55;;;;;;;2.55;0.75;;;18.20;99.90;;;;;;5095012;28;20038;-69
2023/05/16 10:38:00;;;;;;;4.57;1.20;;;18.20;99.90;;;;;;5094373;28;20498;-67
2023/05/16 10:41:05;;;;;;;5.10;1.20;;;18.30;99.90;;;;;;5094874;28;20047;-69
2023/05/16 10:44:17;;;;;;;7.03;1.60;;;18.40;99.90;;;;;;5094527;28;20503;-70
2023/05/16 10:47:21;;;;;;;4.22;1.00;;;18.50;99.90;;;;;;5094336;28;20494;-69
2023/05/16 10:50:32;;;;;;;3.05;0.60;;;18.50;99.90;;;;;;5094283;28;20047;-71
2023/05/16 10:53:36;;;;;;;3.70;0.47;;;18.50;99.90;;;;;;5094325;28;20051;-69
2023/05/16 10:56:42;;;;;;;3.15;0.60;;;18.40;99.90;;;;;;5094176;28;20047;-70
2023/05/16 10:59:48;;;;;;;5.15;2.03;;;18.40;99.90;;;;;;5094189;28;20051;-68
2023/05/16 11:03:03;;;;;;;2.35;0.85;;;18.40;99.90;;;;;;5094153;28;20486;-69
2023/05/16 11:06:07;;;;;;;3.95;0.70;;;18.30;99.90;;;;;;5092817;28;20047;-69
2023/05/16 11:09:12;;;;;;;3.85;0.73;;;18.20;99.90;;;;;;5093810;28;20059;-69
2023/05/16 11:12:19;;;;;;;1.80;0.50;;;18.20;99.90;;;;;;5094105;28;20047;-68
2023/05/16 11:15:26;;;;;;;2.80;0.52;;;18.10;99.90;;;;;;5093721;28;20043;-70
2023/05/16 11:18:32;;;;;;;3.33;0.60;;;18.10;99.90;;;;;;5093890;28;20411;-70
2023/05/16 11:22:08;;;;;;;3.22;0.73;;;18.10;99.90;;;;;;5093558;28;20051;-69
2023/05/16 11:25:13;;;;;;;2.38;0.50;;;18.10;99.90;;;;;;5092891;28;20046;-70
2023/05/16 11:28:18;;;;;;;2.30;0.80;;;18.00;99.90;;;;;;5093334;28;20054;-69
2023/05/16 11:31:22;;;;;;;4.00;0.77;;;18.00;99.90;;;;;;5093581;28;20047;-69
2023/05/16 11:34:28;;;;;;;3.45;0.80;;;18.00;99.90;;;;;;5092241;28;20499;-70
2023/05/16 11:37:32;;;;;;;2.92;0.73;;;18.00;99.90;;;;;;5093380;28;20047;-69
2023/05/16 11:40:38;;;;;;;5.43;0.88;;;18.00;99.90;;;;;;5093507;28;20446;-70
2023/05/16 11:43:44;;;;;;;2.22;0.90;;;18.00;99.90;;;;;;5093551;28;20059;-69
2023/05/16 11:46:48;;;;;;;2.05;0.60;;;18.10;99.90;;;;;;5093180;28;20098;-69
2023/05/16 11:49:57;;;;;;;3.75;0.57;;;18.10;99.90;;;;;;5093378;28;20415;-68
2023/05/16 11:53:01;;;;;;;1.70;0.60;;;18.00;99.90;;;;;;5093169;28;20050;-69
2023/05/16 11:56:07;;;;;;;4.15;1.15;;;18.00;99.90;;;;;;5093302;28;20047;-68
2023/05/16 11:59:12;;;;;;;6.20;0.80;;;18.00;99.90;;;;;;5093323;28;20130;-69
2023/05/16 12:02:16;;;;;;;5.50;0.73;;;18.10;99.90;;;;;;5093322;28;20043;-69
2023/05/16 12:05:25;;;;;;;3.40;0.70;;;18.10;99.90;;;;;;5092929;28;20046;-69
2023/05/16 12:08:29;;;;;;;5.90;0.70;;;18.10;99.90;;;;;;5092858;28;20055;-68
2023/05/16 12:11:33;;;;;;;3.63;0.82;;;18.10;99.90;;;;;;5092634;28;20039;-69
2023/05/16 12:14:37;;;;;;;6.90;1.08;;;18.20;99.90;;;;;;5092714;28;20047;-69
2023/05/16 12:17:42;;;;;;;8.20;0.85;;;18.10;99.90;;;;;;5092557;28;20039;-69
2023/05/16 12:20:46;;;;;;;5.32;0.90;;;18.10;99.90;;;;;;5092528;28;20039;-69
2023/05/16 12:23:55;;;;;;;3.33;1.30;;;18.10;99.90;;;;;;5091300;28;20431;-68
2023/05/16 12:26:59;;;;;;;3.38;0.98;;;18.20;99.90;;;;;;5091304;28;20047;-68
2023/05/16 12:30:04;;;;;;;4.57;0.98;;;18.20;99.90;;;;;;5091780;28;20415;-68
2023/05/16 12:33:13;;;;;;;3.15;0.80;;;18.20;99.90;;;;;;5092397;28;20047;-68
2023/05/16 12:36:18;;;;;;;6.68;1.13;;;18.20;99.90;;;;;;5091694;28;20055;-68
2023/05/16 12:39:22;;;;;;;3.38;1.20;;;18.20;99.90;;;;;;5092572;28;20498;-68
2023/05/16 12:42:29;;;;;;;3.08;0.93;;;18.10;99.90;;;;;;5092367;28;20047;-68
2023/05/16 12:45:33;;;;;;;7.10;1.00;;;18.10;99.90;;;;;;5092056;28;20043;-68
2023/05/16 12:48:38;;;;;;;11.50;1.55;;;18.10;99.90;;;;;;5092213;28;20051;-68
2023/05/16 12:51:49;;;;;;;3.35;0.88;;;18.10;99.90;;;;;;5091891;28;20043;-68
2023/05/16 12:54:52;;;;;;;6.68;1.30;;;18.10;99.90;;;;;;5091924;28;20073;-68
2023/05/16 12:57:57;;;;;;;6.07;1.98;;;18.10;99.90;;;;;;5091113;28;20047;-68
2023/05/16 13:01:02;;;;;;;16.80;1.90;;;18.10;99.90;;;;;;5091915;28;20043;-68
2023/05/16 13:04:06;;;;;;;7.38;1.17;;;18.20;99.90;;;;;;5092081;28;20047;-71
2023/05/16 13:07:11;;;;;;;4.03;1.33;;;18.20;99.90;;;;;;5091899;28;20062;-70
2023/05/16 13:10:15;;;;;;;3.60;0.88;;;18.30;99.90;;;;;;5091698;28;20059;-67
2023/05/16 13:13:19;;;;;;;8.50;1.60;;;18.40;99.90;;;;;;5091827;28;20051;-70
2023/05/16 13:16:23;;;;;;;5.22;0.98;;;18.40;99.90;;;;;;5090887;28;20039;-68
2023/05/16 13:19:27;;;;;;;4.65;1.15;;;18.50;99.90;;;;;;5090321;28;20043;-68
2023/05/16 13:22:31;;;;;;;7.03;1.35;;;18.60;99.90;;;;;;5091603;28;20063;-69
2023/05/16 13:25:35;;;;;;;6.40;1.42;;;18.50;99.90;;;;;;5090743;28;20494;-70
2023/05/16 13:28:40;;;;;;;4.60;1.48;;;18.40;99.90;;;;;;5091329;28;20059;-72
2023/05/16 13:31:44;;;;;;;10.95;1.67;;;18.30;99.90;;;;;;5090740;28;20043;-68
2023/05/16 13:34:48;;;;;;;7.78;1.80;;;18.20;99.90;;;;;;5091273;28;20043;-68
2023/05/16 13:37:51;;;;;;;10.25;1.88;;;18.20;99.90;;;;;;5091271;28;20059;-68
2023/05/16 13:40:55;;;;;;;14.75;1.98;;;18.20;99.90;;;;;;5090502;28;20039;-70
2023/05/16 13:43:59;;;;;;;10.05;2.10;;;18.20;99.90;;;;;;5090934;28;20090;-68
2023/05/16 13:47:03;;;;;;;10.40;2.10;;;18.20;99.90;;;;;;5090204;28;20035;-68
2023/05/16 13:50:08;;;;;;;12.50;1.92;;;18.30;99.90;;;;;;5090975;28;20511;-69
2023/05/16 13:53:12;;;;;;;9.27;1.25;;;18.40;99.90;;;;;;5091239;28;20047;-69
2023/05/16 13:56:16;;;;;;;8.73;1.38;;;18.40;99.90;;;;;;5091205;28;20043;-69
2023/05/16 13:59:21;;;;;;;6.93;1.42;;;18.40;99.90;;;;;;5091065;28;20051;-71
2023/05/16 14:02:25;;;;;;;10.32;1.35;;;18.40;99.90;;;;;;5090899;28;20407;-70
2023/05/16 14:05:29;;;;;;;6.93;1.33;;;18.40;99.90;;;;;;5078559;28;20063;-70
2023/05/16 14:08:33;;;;;;;6.72;1.38;;;18.40;99.90;;;;;;5091251;28;20403;-71
2023/05/16 14:11:37;;;;;;;9.82;1.42;;;18.40;99.90;;;;;;5090688;28;20047;-69
2023/05/16 14:14:41;;;;;;;6.43;1.33;;;18.40;99.90;;;;;;5090703;28;20046;-68
2023/05/16 14:17:45;;;;;;;11.20;1.20;;;18.50;99.90;;;;;;5091049;28;20043;-69
2023/05/16 14:20:49;;;;;;;10.18;1.10;;;18.50;99.90;;;;;;5090716;28;20190;-71
2023/05/16 14:23:53;;;;;;;13.00;1.95;;;18.50;99.90;;;;;;5090005;28;20044;-68
2023/05/16 14:26:58;;;;;;;9.40;1.42;;;18.50;99.90;;;;;;5090469;28;20054;-70
2023/05/16 14:30:02;;;;;;;4.25;1.30;;;18.60;99.90;;;;;;5090769;28;20416;-70
2023/05/16 14:33:07;;;;;;;6.45;1.38;;;18.50;99.90;;;;;;5089722;28;20047;-70
2023/05/16 14:36:13;;;;;;;5.78;1.35;;;18.60;99.90;;;;;;5089772;28;20059;-68
2023/05/16 14:39:17;;;;;;;15.68;2.00;;;18.50;99.90;;;;;;5091520;28;20053;-68
2023/05/16 14:42:21;;;;;;;8.45;2.00;;;18.50;99.90;;;;;;5090897;28;20043;-68
2023/05/16 14:45:25;;;;;;;8.00;1.58;;;18.40;99.90;;;;;;5090583;28;20047;-68
2023/05/16 14:48:30;;;;;;;10.27;1.50;;;18.40;99.90;;;;;;5090424;28;20511;-69
2023/05/16 14:51:34;;;;;;;7.80;1.75;;;18.30;99.90;;;;;;5090921;28;20043;-69
2023/05/16 14:54:38;;;;;;;13.35;2.25;;;18.30;99.90;;;;;;5090591;28;20043;-72
2023/05/16 14:57:42;;;;;;;8.43;1.85;;;18.20;99.90;;;;;;5090876;28;20043;-70
2023/05/16 15:00:46;;;;;;;11.60;2.05;;;18.10;99.90;;;;;;5094861;28;20494;-72
2023/05/16 15:03:50;;;;;;;11.25;2.05;;;18.00;99.90;;;;;;5094329;28;20058;-69
2023/05/16 15:06:54;;;;;;;10.13;1.80;;;18.00;99.90;;;;;;5094339;28;20051;-68
2023/05/16 15:09:58;;;;;;;9.13;1.50;;;18.00;99.90;;;;;;5093522;28;20472;-68
2023/05/16 15:13:03;;;;;;;9.45;1.60;;;17.90;99.90;;;;;;5093992;28;20043;-68
2023/05/16 15:16:07;;;;;;;8.65;1.42;;;17.90;99.90;;;;;;5093967;28;20063;-71
2023/05/16 15:19:11;;;;;;;10.35;1.80;;;17.90;99.90;;;;;;5093588;28;20043;-70
2023/05/16 15:22:15;;;;;;;10.55;1.50;;;17.80;99.90;;;;;;5093865;28;20039;-71
2023/05/16 15:25:20;;;;;;;8.65;1.65;;;17.90;99.90;;;;;;5093717;28;20050;-71
2023/05/16 15:28:23;;;;;;;8.73;1.55;;;17.90;99.90;;;;;;5093458;28;20055;-72
2023/05/16 15:31:28;;;;;;;13.65;3.10;;;17.90;99.90;;;;;;5092642;28;20047;-70
2023/05/16 15:34:33;;;;;;;12.00;1.83;;;18.00;99.90;;;;;;5093744;28;20043;-68
2023/05/16 15:37:39;;;;;;;12.82;2.35;;;17.90;99.90;;;;;;5093662;28;20054;-69
2023/05/16 15:40:43;;;;;;;15.35;2.50;;;17.80;99.90;;;;;;5093546;28;20048;-71
2023/05/16 15:43:47;;;;;;;10.50;1.88;;;17.90;99.90;;;;;;5092563;28;20526;-72
2023/05/16 15:46:51;;;;;;;11.65;1.45;;;17.90;99.90;;;;;;5092684;28;20506;-73
2023/05/16 15:49:55;;;;;;;13.07;1.83;;;17.80;99.90;;;;;;5093235;28;20073;-73
2023/05/16 15:52:59;;;;;;;14.80;2.85;;;17.90;99.90;;;;;;5092091;28;20039;-71
2023/05/16 15:56:03;;;;;;;9.25;1.80;;;17.80;99.90;;;;;;5092446;28;20506;-72
2023/05/16 15:59:07;;;;;;;7.38;1.38;;;17.80;99.90;;;;;;5092442;28;20047;-71
2023/05/16 16:02:10;;;;;;;9.98;2.15;;;17.80;99.90;;;;;;5093097;28;20063;-69
2023/05/16 16:05:14;;;;;;;11.63;3.53;;;17.80;99.90;;;;;;5093036;28;20051;-69
2023/05/16 16:08:19;;;;;;;8.23;2.30;;;17.80;99.90;;;;;;5092889;28;20074;-69
2023/05/16 16:11:26;;;;;;;10.98;1.60;;;17.80;99.90;;;;;;5091527;28;20051;-68
2023/05/16 16:14:30;;;;;;;15.25;1.67;;;17.80;99.90;;;;;;5092504;28;20040;-69